Time;durP1;ratioP1;P1;durP2;ratioP2;P2;SDS_P1;SDS_P2;PMS_P1;PMS_P2;Temp;Humidity;BMP_temperature;BMP_pressure;BME280_temperature;BME280_humidity;BME280_pressure;Samples;Min_cycle;Max_cycle;Signal;HPM_P1;HPM_P2
2020/12/08 05:42:19;;;;;;;33.10;14.43;;;;;;;-6.02;77.81;101268.33;1686083;83;21642;-35
2020/12/08 05:44:54;;;;;;;32.67;14.30;;;;;;;-6.03;77.81;101263.08;1661961;83;21643;-35
2020/12/08 05:47:29;;;;;;;34.27;13.05;;;;;;;-6.01;77.91;101276.86;1714086;80;21252;-35
2020/12/08 06:04:44;;;;;;;34.38;13.53;;;;;;;-6.04;77.92;101274.93;1754648;81;21125;-36
2020/12/08 06:07:26;;;;;;;35.33;13.93;;;;;;;-6.00;77.89;101278.25;1719347;81;21833;-35
2020/12/08 06:17:33;;;;;;;27.58;12.50;;;;;;;-5.97;77.87;101284.89;1716648;80;21243;-35
2020/12/08 06:24:04;;;;;;;27.98;12.15;;;;;;;-5.90;77.90;101278.20;1779905;79;21735;-36
2020/12/08 07:05:05;;;;;;;32.30;14.50;;;;;;;-4.65;73.88;101282.05;1786948;78;22409;-38
2020/12/08 07:07:34;;;;;;;31.77;13.88;;;;;;;-4.75;73.95;101279.95;1787833;78;21159;-34
2020/12/08 07:10:03;;;;;;;28.73;14.65;;;;;;;-4.83;73.98;101281.53;1789343;78;21139;-35
2020/12/08 07:12:42;;;;;;;31.65;13.83;;;;;;;-4.87;74.00;101274.44;1791442;78;21162;-38
2020/12/08 07:15:26;;;;;;;30.75;14.25;;;;;;;-4.84;74.02;101276.31;1792058;78;23541;-35
2020/12/08 07:18:01;;;;;;;29.45;12.75;;;;;;;-4.93;74.17;101274.32;1770274;79;21671;-35
2020/12/08 07:20:29;;;;;;;33.00;14.43;;;;;;;-4.92;74.38;101280.84;1773396;78;21159;-37
2020/12/08 07:23:05;;;;;;;35.15;14.87;;;;;;;-4.90;74.34;101275.46;1766246;79;21194;-35
2020/12/08 07:25:37;;;;;;;28.83;13.58;;;;;;;-4.87;74.25;101279.90;1742520;79;21588;-38
2020/12/08 07:28:07;;;;;;;31.42;13.18;;;;;;;-4.85;74.15;101274.16;1770889;79;21203;-38
2020/12/08 07:30:35;;;;;;;32.90;14.47;;;;;;;-4.82;74.10;101277.31;1766074;79;21179;-37
2020/12/08 07:33:10;;;;;;;31.97;13.78;;;;;;;-4.81;73.86;101280.40;1767641;79;21139;-34
2020/12/08 07:35:45;;;;;;;38.60;15.58;;;;;;;-4.80;73.91;101280.90;1768225;79;21996;-36
2020/12/08 07:38:13;;;;;;;33.08;14.58;;;;;;;-4.79;73.89;101282.67;1766095;79;21157;-33
2020/12/08 07:40:43;;;;;;;28.65;12.82;;;;;;;-4.75;73.89;101285.97;1766320;79;21169;-36
2020/12/08 07:43:11;;;;;;;40.90;15.60;;;;;;;-4.69;73.85;101293.22;1763870;79;21208;-37
2020/12/08 07:45:44;;;;;;;37.25;14.35;;;;;;;-4.67;73.73;101289.10;1769125;80;21159;-37
2020/12/08 07:48:17;;;;;;;29.90;15.03;;;;;;;-4.65;73.77;101290.98;1769179;78;21180;-33
2020/12/08 07:50:46;;;;;;;30.90;12.60;;;;;;;-4.58;73.84;101297.44;1768951;80;21191;-34
2020/12/08 07:53:16;;;;;;;29.75;13.38;;;;;;;-4.53;73.72;101293.97;1722780;79;21135;-36
2020/12/08 07:55:46;;;;;;;27.42;13.68;;;;;;;-4.48;73.59;101296.09;1770206;79;21313;-38
2020/12/08 07:58:15;;;;;;;38.40;15.10;;;;;;;-4.46;73.41;101294.96;1772942;79;21200;-37
2020/12/08 08:00:43;;;;;;;34.50;14.30;;;;;;;-4.47;73.47;101286.77;1769104;79;21167;-37
2020/12/08 08:03:11;;;;;;;32.03;13.05;;;;;;;-4.44;73.47;101280.23;1720589;82;21198;-37
2020/12/08 08:05:40;;;;;;;31.80;12.43;;;;;;;-4.36;73.19;101283.36;1717427;82;21176;-37
2020/12/08 08:08:08;;;;;;;36.53;15.18;;;;;;;-4.33;73.25;101285.77;1716862;82;21174;-37
2020/12/08 08:10:37;;;;;;;28.55;13.03;;;;;;;-4.31;72.85;101276.93;1724793;82;21508;-34
2020/12/08 08:13:07;;;;;;;27.25;12.95;;;;;;;-4.29;72.76;101281.40;1717322;82;21201;-37
2020/12/08 08:15:35;;;;;;;32.40;13.43;;;;;;;-4.29;72.66;101285.23;1714142;82;21248;-34
2020/12/08 08:18:03;;;;;;;28.73;14.40;;;;;;;-4.24;72.55;101284.27;1715848;82;21297;-34
2020/12/08 08:20:31;;;;;;;25.40;11.73;;;;;;;-4.18;72.63;101275.78;1719914;82;21226;-34
2020/12/08 08:22:59;;;;;;;30.17;14.15;;;;;;;-4.12;72.25;101270.23;1722963;82;21147;-37
2020/12/08 08:25:27;;;;;;;28.07;13.15;;;;;;;-4.06;72.23;101264.29;1715159;82;21182;-35
2020/12/08 08:27:55;;;;;;;23.20;12.47;;;;;;;-4.00;72.07;101260.94;1715278;82;21171;-35
2020/12/08 08:30:23;;;;;;;30.48;14.07;;;;;;;-3.94;71.92;101258.83;1715172;81;21126;-35
2020/12/08 08:32:51;;;;;;;31.95;13.45;;;;;;;-3.91;71.73;101251.75;1714028;81;21175;-34
2020/12/08 08:35:21;;;;;;;36.10;14.20;;;;;;;-3.89;71.33;101256.58;1701656;82;21507;-35
2020/12/08 08:37:50;;;;;;;31.75;13.58;;;;;;;-3.90;71.18;101248.02;1704980;83;21309;-39
2020/12/08 08:40:18;;;;;;;32.38;14.38;;;;;;;-3.88;71.03;101244.32;1696800;82;21667;-35
2020/12/08 08:42:49;;;;;;;27.77;12.75;;;;;;;-3.87;71.18;101248.26;1731119;81;21182;-38
2020/12/08 08:45:22;;;;;;;33.35;13.93;;;;;;;-3.83;71.27;101241.28;1734132;81;21288;-44
2020/12/08 08:47:50;;;;;;;28.15;14.53;;;;;;;-3.81;71.11;101238.47;1733247;81;21180;-34
2020/12/08 08:50:18;;;;;;;31.50;13.30;;;;;;;-3.71;70.99;101242.95;1735601;80;21557;-38
2020/12/08 08:52:49;;;;;;;34.03;14.33;;;;;;;-3.70;70.55;101236.69;1738459;82;21233;-38
2020/12/08 08:55:19;;;;;;;30.75;13.18;;;;;;;-3.69;70.77;101241.02;1735096;81;21627;-34
2020/12/08 08:57:47;;;;;;;30.35;12.43;;;;;;;-3.65;70.55;101235.36;1711495;83;21202;-38
2020/12/08 09:00:18;;;;;;;25.45;12.75;;;;;;;-3.60;70.50;101234.38;1719699;82;21167;-38
2020/12/08 09:02:58;;;;;;;29.57;13.95;;;;;;;-3.55;70.21;101224.08;1795851;78;22895;-34
2020/12/08 09:05:28;;;;;;;34.48;14.05;;;;;;;-3.59;70.09;101229.78;1773770;79;21764;-37
2020/12/08 09:07:56;;;;;;;30.40;14.85;;;;;;;-3.58;70.23;101233.72;1765043;79;21856;-38
2020/12/08 09:10:24;;;;;;;27.85;12.80;;;;;;;-3.53;70.31;101233.66;1763220;80;21154;-37
2020/12/08 09:12:55;;;;;;;37.83;14.85;;;;;;;-3.46;70.04;101227.70;1765617;79;21339;-38
2020/12/08 09:15:24;;;;;;;25.97;13.53;;;;;;;-3.43;69.98;101222.78;1766210;79;21185;-37
2020/12/08 09:17:52;;;;;;;28.92;12.33;;;;;;;-3.39;70.27;101226.95;1769222;79;21167;-37
2020/12/08 09:20:20;;;;;;;33.40;13.18;;;;;;;-3.32;70.36;101217.63;1766260;79;21143;-35
2020/12/08 09:22:51;;;;;;;27.32;12.45;;;;;;;-3.25;70.30;101218.94;1769821;79;21277;-34
2020/12/08 09:25:27;;;;;;;23.75;10.30;;;;;;;-3.17;70.41;101219.10;1767226;79;21694;-34
2020/12/08 09:27:57;;;;;;;28.05;13.48;;;;;;;-3.12;69.90;101216.47;1740260;79;21183;-34
2020/12/08 09:30:27;;;;;;;28.57;13.32;;;;;;;-3.14;69.85;101219.69;1769774;79;21169;-35
2020/12/08 09:32:55;;;;;;;24.32;11.65;;;;;;;-3.11;69.78;101221.20;1768968;80;22125;-38
2020/12/08 09:35:23;;;;;;;29.85;11.88;;;;;;;-3.12;69.69;101223.27;1765357;79;21194;-38
2020/12/08 09:37:51;;;;;;;25.23;13.28;;;;;;;-3.11;69.69;101218.64;1766536;79;21169;-36
2020/12/08 09:40:25;;;;;;;29.25;13.25;;;;;;;-3.11;69.68;101220.80;1764515;79;21265;-38
2020/12/08 09:42:53;;;;;;;30.32;12.37;;;;;;;-3.09;69.83;101216.67;1767890;79;21130;-38
2020/12/08 09:45:22;;;;;;;30.02;13.98;;;;;;;-3.03;70.05;101216.20;1767928;79;21155;-35
2020/12/08 09:47:51;;;;;;;32.67;13.05;;;;;;;-3.01;70.09;101211.70;1763594;80;21368;-38
2020/12/08 09:50:21;;;;;;;35.17;13.72;;;;;;;-2.93;70.06;101212.22;1768966;80;21108;-39
2020/12/08 09:52:49;;;;;;;30.95;12.93;;;;;;;-2.87;69.88;101217.75;1764445;79;21536;-35
2020/12/08 09:55:16;;;;;;;39.00;14.33;;;;;;;-2.87;69.53;101212.63;1763408;79;21225;-33
2020/12/08 09:57:44;;;;;;;32.00;12.78;;;;;;;-2.87;69.88;101205.34;1719960;81;21141;-34
2020/12/08 10:00:13;;;;;;;21.52;12.37;;;;;;;-2.86;69.92;101204.16;1703543;82;21648;-37
2020/12/08 10:02:41;;;;;;;27.50;13.65;;;;;;;-2.84;70.03;101200.05;1704455;82;21194;-37
2020/12/08 10:05:09;;;;;;;24.57;12.05;;;;;;;-2.83;70.16;101208.22;1751392;80;21631;-34
2020/12/08 10:07:37;;;;;;;26.75;13.10;;;;;;;-2.81;70.27;101198.95;1755180;80;21263;-38
2020/12/08 10:10:06;;;;;;;25.32;12.98;;;;;;;-2.75;70.32;101195.92;1703030;82;21148;-35
2020/12/08 10:12:34;;;;;;;23.35;12.03;;;;;;;-2.76;70.19;101195.44;1754987;80;21887;-38
2020/12/08 10:15:03;;;;;;;23.73;11.57;;;;;;;-2.77;70.38;101192.38;1757933;80;21165;-34
2020/12/08 10:17:31;;;;;;;31.33;14.00;;;;;;;-2.71;70.77;101187.27;1752487;80;21305;-37
2020/12/08 10:19:58;;;;;;;24.85;13.03;;;;;;;-2.64;70.63;101178.71;1755542;79;21393;-35
2020/12/08 10:22:30;;;;;;;22.48;12.20;;;;;;;-2.57;70.56;101187.30;1751862;80;21273;-35
2020/12/08 10:25:05;;;;;;;30.90;12.82;;;;;;;-2.56;70.28;101182.66;1752154;80;21705;-38
2020/12/08 10:27:37;;;;;;;28.62;12.35;;;;;;;-2.60;70.52;101185.43;1738005;80;21176;-35
2020/12/08 10:30:25;;;;;;;22.30;11.35;;;;;;;-2.55;70.76;101185.71;1756078;80;21163;-39
2020/12/08 10:33:30;;;;;;;25.85;11.30;;;;;;;-2.54;70.68;101180.71;1735551;80;21600;-35
2020/12/08 10:40:11;;;;;;;27.02;13.20;;;;;;;-2.46;70.74;101183.38;1754393;80;21602;-35
2020/12/08 10:42:46;;;;;;;30.85;14.07;;;;;;;-2.44;71.02;101170.25;1742487;80;21832;-38
2020/12/08 10:45:21;;;;;;;25.60;14.75;;;;;;;-2.43;70.91;101177.19;1749508;80;21326;-36
2020/12/08 10:47:57;;;;;;;31.42;13.98;;;;;;;-2.44;70.92;101167.69;1754784;80;22038;-35
2020/12/08 10:50:25;;;;;;;26.17;12.75;;;;;;;-2.41;71.06;101158.05;1752452;80;21274;-39
2020/12/08 10:52:55;;;;;;;29.32;13.95;;;;;;;-2.36;71.02;101155.80;1755217;80;21300;-39
2020/12/08 10:55:24;;;;;;;31.27;13.03;;;;;;;-2.33;70.93;101153.41;1754097;80;21159;-35
2020/12/08 10:57:58;;;;;;;28.67;12.35;;;;;;;-2.27;71.03;101150.84;1754232;80;21150;-36
2020/12/08 11:00:29;;;;;;;28.38;13.03;;;;;;;-2.23;71.11;101141.30;1753002;80;21167;-38
2020/12/08 11:02:59;;;;;;;28.30;14.83;;;;;;;-2.23;70.72;101149.39;1750445;80;21186;-36
